Firm Cases, Texas
Current Conditions -  °F | °C
As of 2:58 PM on Thursday 27 Nov 2014 (Local Time) from KSKF Reporting Station
Clear Clear  
Wind Chill: 64°   Ceiling: Unl
Heat Index: 64°   Visibility: 10mi
Dew Point: 32°   Wind: 7mph
Humidity: 30%   Direction: 80°E
Pressure: 30.38"   Gusts: NA
Location:  29.4209°N, 98.5275°W
Report Text: KSKF 272058Z AUTO 08006KT 10SM CLR 18/00 A3038 RMK AO2 SLP287 T01801000 57028 $
Loading
Personal Weather Stations






























Interactive Weather Map New forecast layout! Learn more

10-Day Weather Forecast

Advertisements
Track Severe Weather on mobile